Terminal Aerodrome Forecast
Issued by NWS

Home | Current Version | Previous Version | Text Only | Print | Product List | Glossary On
Versions: 1 2 3 4 5 6 7 8 9 10 11 12 13 14 15 16 17 18 19 20 21 22 23 24 25 26 27 28
000
FTAK31 PANC 280539
TAFADL
TAF
PADL 280539Z 2806/2906 18010KT P6SM SCT050 BKN090
     FM280900 VRB03KT P6SM BKN060
     FM282000 19006KT P6SM BKN060
     FM290300 34012KT P6SM SCT060 BKN100
      AMD LTD TO CLD VIS AND WIND 2807/2816=

USA.gov is the U.S. government's official web portal to all federal, state and local government web resources and services.